Time;durP1;ratioP1;P1;durP2;ratioP2;P2;SDS_P1;SDS_P2;PMS_P1;PMS_P2;Temp;Humidity;BMP_temperature;BMP_pressure;BME280_temperature;BME280_humidity;BME280_pressure;Samples;Min_cycle;Max_cycle;Signal;HPM_P1;HPM_P2
2022/10/15 00:01:33;;;;;;;15.05;8.10;;;;;;;4.56;75.18;101798.09;1833174;77;21154;-54
2022/10/15 00:04:01;;;;;;;17.02;7.65;;;;;;;4.54;75.27;101793.76;1822610;78;21062;-49
2022/10/15 00:06:30;;;;;;;17.80;8.13;;;;;;;4.50;75.35;101790.27;1824231;77;21157;-50
2022/10/15 00:08:59;;;;;;;14.20;7.22;;;;;;;4.48;75.39;101792.41;1838319;77;21078;-49
2022/10/15 00:11:30;;;;;;;14.63;7.05;;;;;;;4.45;75.41;101789.37;1842672;78;21200;-49
2022/10/15 00:14:00;;;;;;;15.65;7.47;;;;;;;4.42;75.51;101793.27;1842397;77;21131;-53
2022/10/15 00:16:29;;;;;;;17.05;7.80;;;;;;;4.38;75.61;101790.22;1838969;78;21481;-55
2022/10/15 00:18:59;;;;;;;16.40;7.45;;;;;;;4.34;75.70;101787.17;1840601;76;21498;-59
2022/10/15 00:21:28;;;;;;;19.42;8.65;;;;;;;4.30;75.77;101790.61;1860322;76;21086;-58
2022/10/15 00:23:57;;;;;;;22.90;8.15;;;;;;;4.25;75.84;101791.47;1846787;78;21070;-59
2022/10/15 00:26:28;;;;;;;19.23;8.25;;;;;;;4.20;75.96;101787.96;1847120;77;21521;-58
2022/10/15 00:28:59;;;;;;;16.85;7.22;;;;;;;4.16;76.04;101790.13;1846482;77;21031;-60
2022/10/15 00:31:30;;;;;;;21.95;9.18;;;;;;;4.15;76.13;101785.80;1846853;77;21023;-59
2022/10/15 00:34:01;;;;;;;19.60;8.90;;;;;;;4.14;76.17;101784.04;1842974;77;21109;-58
2022/10/15 00:36:33;;;;;;;17.05;8.50;;;;;;;4.11;76.20;101787.92;1839592;78;21047;-58
2022/10/15 00:39:03;;;;;;;16.82;8.45;;;;;;;4.08;76.25;101793.14;1833083;78;21039;-58
2022/10/15 00:41:35;;;;;;;21.73;8.00;;;;;;;4.04;76.30;101803.98;1832982;78;21093;-57
2022/10/15 00:44:23;;;;;;;13.65;7.42;;;;;;;4.02;76.38;101791.38;1832988;78;21121;-58
2022/10/15 00:47:17;;;;;;;19.65;8.93;;;;;;;3.99;76.46;101795.27;1823406;78;21489;-58
2022/10/15 00:50:04;;;;;;;15.03;7.45;;;;;;;3.96;76.57;101795.68;1832945;78;21164;-58
2022/10/15 00:52:36;;;;;;;18.70;7.83;;;;;;;3.93;76.71;101799.16;1832922;78;21109;-58
2022/10/15 00:55:16;;;;;;;15.68;7.95;;;;;;;3.89;76.75;101801.28;1832718;78;21132;-58
2022/10/15 00:57:48;;;;;;;19.92;8.58;;;;;;;3.91;76.77;101801.29;1834206;78;21185;-57
2022/10/15 01:00:18;;;;;;;17.20;8.03;;;;;;;3.89;76.62;101793.90;1830842;77;21577;-59
2022/10/15 01:02:47;;;;;;;19.37;7.92;;;;;;;3.88;76.62;101799.99;1814815;79;21187;-62
2022/10/15 01:05:18;;;;;;;18.73;8.83;;;;;;;3.83;76.71;101796.91;1834842;77;21600;-57
2022/10/15 01:07:47;;;;;;;18.77;8.65;;;;;;;3.80;76.83;101802.53;1838134;77;21134;-60
2022/10/15 01:10:18;;;;;;;16.75;7.97;;;;;;;3.75;76.98;101798.61;1839847;77;21114;-56
2022/10/15 01:13:00;;;;;;;19.07;8.70;;;;;;;3.71;77.01;101803.36;1846547;78;21148;-55
2022/10/15 01:15:46;;;;;;;20.88;8.45;;;;;;;3.68;77.12;101799.42;1840521;77;21066;-59
2022/10/15 01:18:24;;;;;;;16.73;9.15;;;;;;;3.63;77.20;101799.82;1823178;77;21061;-59
2022/10/15 01:21:11;;;;;;;16.73;8.28;;;;;;;3.60;77.28;101795.91;1816267;77;21741;-59
2022/10/15 01:24:00;;;;;;;19.35;8.05;;;;;;;3.57;77.31;101798.05;1820748;77;21133;-61
2022/10/15 01:26:43;;;;;;;18.77;9.03;;;;;;;3.55;77.26;101801.08;1828162;78;21153;-58
2022/10/15 01:29:48;;;;;;;15.30;7.17;;;;;;;3.52;77.29;101801.48;1844215;77;21066;-59
2022/10/15 01:32:25;;;;;;;17.32;9.08;;;;;;;3.46;77.30;101799.27;1820496;77;21024;-59
2022/10/15 01:35:05;;;;;;;19.07;8.98;;;;;;;3.44;77.36;101797.53;1813842;79;21050;-56
2022/10/15 01:37:52;;;;;;;17.70;8.68;;;;;;;3.41;77.40;101798.39;1827955;78;21074;-58
2022/10/15 01:40:38;;;;;;;24.65;8.63;;;;;;;3.37;77.46;101799.20;1832888;78;21241;-56
2022/10/15 01:43:09;;;;;;;18.70;8.40;;;;;;;3.34;77.46;101796.59;1841738;78;21509;-52
2022/10/15 01:45:52;;;;;;;17.70;7.33;;;;;;;3.33;77.48;101801.34;1836925;78;21505;-51
2022/10/15 01:48:24;;;;;;;17.40;8.43;;;;;;;3.30;77.52;101800.02;1840217;78;21256;-49
2022/10/15 01:50:55;;;;;;;16.02;7.90;;;;;;;3.28;77.64;101801.73;1856035;77;21043;-51
2022/10/15 01:53:27;;;;;;;14.73;7.75;;;;;;;3.26;77.68;101806.95;1857581;77;21595;-61
2022/10/15 01:56:02;;;;;;;13.75;7.35;;;;;;;3.25;77.73;101806.94;1833449;76;21113;-64
2022/10/15 01:58:32;;;;;;;20.12;8.30;;;;;;;3.24;77.73;101813.84;1807693;79;21125;-60
2022/10/15 02:01:00;;;;;;;16.07;7.60;;;;;;;3.25;77.72;101814.75;1807581;79;21637;-60
2022/10/15 02:03:29;;;;;;;16.65;8.05;;;;;;;3.23;77.78;101815.16;1807738;79;21632;-61
2022/10/15 02:06:01;;;;;;;15.45;8.60;;;;;;;3.21;77.92;101819.05;1807610;79;21126;-62
2022/10/15 02:08:41;;;;;;;20.02;8.33;;;;;;;3.18;78.00;101812.94;1833421;78;21166;-62
2022/10/15 02:11:13;;;;;;;20.30;7.60;;;;;;;3.17;78.07;101816.39;1833119;78;21151;-62
2022/10/15 02:13:45;;;;;;;17.65;7.37;;;;;;;3.16;78.00;101816.83;1832900;78;21201;-63
2022/10/15 02:16:16;;;;;;;17.32;8.38;;;;;;;3.15;78.12;101815.51;1827100;78;21112;-61
2022/10/15 02:18:55;;;;;;;19.73;8.13;;;;;;;3.13;78.29;101816.79;1826904;77;21092;-61
2022/10/15 02:21:57;;;;;;;17.30;7.30;;;;;;;3.11;78.19;101818.95;1827478;78;21109;-61
2022/10/15 02:24:32;;;;;;;18.40;7.95;;;;;;;3.09;78.28;101817.63;1830116;77;21153;-58
2022/10/15 02:27:04;;;;;;;15.63;7.85;;;;;;;3.07;78.27;101820.21;1840204;77;21171;-57
2022/10/15 02:29:35;;;;;;;14.28;6.87;;;;;;;3.05;78.27;101819.33;1840172;78;21048;-57
2022/10/15 02:32:06;;;;;;;19.67;6.95;;;;;;;3.04;78.26;101815.00;1840213;78;21615;-57
2022/10/15 02:34:36;;;;;;;13.88;6.95;;;;;;;3.03;78.25;101814.55;1839576;77;21170;-57
2022/10/15 02:37:07;;;;;;;16.02;7.45;;;;;;;3.00;78.35;101813.64;1836062;78;21153;-56
2022/10/15 02:39:36;;;;;;;27.17;12.73;;;;;;;2.97;78.42;101811.89;1843583;78;21091;-57
2022/10/15 02:42:06;;;;;;;88.58;30.68;;;;;;;2.95;78.55;101816.63;1840283;78;21149;-57
2022/10/15 02:44:34;;;;;;;139.60;43.85;;;;;;;2.92;78.59;101812.27;1840341;78;21490;-57
2022/10/15 02:47:03;;;;;;;68.60;23.25;;;;;;;2.90;78.64;101816.16;1839748;77;21146;-57
2022/10/15 02:49:33;;;;;;;95.50;28.77;;;;;;;2.90;78.69;101812.69;1816387;78;21506;-60
2022/10/15 02:52:04;;;;;;;29.87;12.18;;;;;;;2.87;78.63;101813.95;1841386;76;21601;-61
2022/10/15 02:54:33;;;;;;;20.52;8.95;;;;;;;2.84;78.78;101817.81;1815613;76;21066;-62
2022/10/15 02:57:02;;;;;;;18.67;8.13;;;;;;;2.81;78.77;101826.47;1812191;79;21067;-61
2022/10/15 02:59:31;;;;;;;18.10;8.08;;;;;;;2.80;78.98;101826.45;1837088;78;21089;-61
2022/10/15 03:02:00;;;;;;;24.40;10.00;;;;;;;2.80;78.89;101831.65;1833940;77;21511;-60
2022/10/15 03:04:29;;;;;;;16.75;9.53;;;;;;;2.77;79.06;101825.13;1837216;78;21596;-61
2022/10/15 03:06:59;;;;;;;27.65;9.53;;;;;;;2.81;79.22;101834.71;1844350;78;21573;-60
2022/10/15 03:09:28;;;;;;;26.68;11.10;;;;;;;2.78;79.15;101837.27;1843261;77;21146;-59
2022/10/15 03:11:56;;;;;;;15.75;9.43;;;;;;;2.78;79.43;101839.87;1820446;77;21127;-48
2022/10/15 03:14:25;;;;;;;24.30;9.75;;;;;;;2.78;79.64;101829.46;1809468;79;21136;-47
2022/10/15 03:16:54;;;;;;;19.57;8.78;;;;;;;2.77;79.51;101835.10;1810749;77;21206;-56
2022/10/15 03:19:23;;;;;;;19.77;8.68;;;;;;;2.75;79.60;101839.82;1813399;79;21128;-52
2022/10/15 03:21:52;;;;;;;18.70;8.48;;;;;;;2.67;79.56;101836.73;1814103;79;21054;-53
2022/10/15 03:24:21;;;;;;;18.70;8.13;;;;;;;2.64;79.40;101838.00;1813944;79;21067;-55
2022/10/15 03:26:50;;;;;;;41.00;14.25;;;;;;;2.61;79.49;101831.45;1805674;79;21189;-53
2022/10/15 03:29:18;;;;;;;28.87;11.00;;;;;;;2.62;79.40;101829.31;1808450;78;21557;-49
2022/10/15 03:31:52;;;;;;;201.70;61.45;;;;;;;2.61;79.30;101827.55;1841726;76;21495;-50
2022/10/15 03:34:22;;;;;;;161.28;49.03;;;;;;;2.58;79.38;101828.80;1843954;76;21162;-58
2022/10/15 03:36:51;;;;;;;168.25;51.83;;;;;;;2.58;79.29;101829.23;1834706;76;21173;-59
2022/10/15 03:39:19;;;;;;;178.87;56.95;;;;;;;2.54;79.31;101829.63;1836854;76;21474;-59
2022/10/15 03:41:51;;;;;;;141.15;46.00;;;;;;;2.56;79.36;101835.72;1836712;76;21055;-65
2022/10/15 03:44:21;;;;;;;82.80;26.33;;;;;;;2.55;79.24;101838.33;1837953;76;21522;-65
2022/10/15 03:46:51;;;;;;;26.97;11.28;;;;;;;2.55;79.57;101834.42;1838187;76;21098;-65
2022/10/15 03:49:22;;;;;;;41.88;16.10;;;;;;;2.62;80.10;101838.41;1833564;76;21193;-62
2022/10/15 03:51:50;;;;;;;44.98;17.60;;;;;;;2.64;79.89;101843.63;1827614;77;21051;-61
2022/10/15 03:54:21;;;;;;;30.48;11.95;;;;;;;2.63;79.97;101839.27;1834813;76;21097;-58
2022/10/15 03:56:51;;;;;;;24.80;11.75;;;;;;;2.62;80.15;101842.31;1837893;76;21087;-61
2022/10/15 03:59:30;;;;;;;34.75;10.80;;;;;;;2.65;80.31;101844.92;1839257;76;21037;-64
2022/10/15 04:02:01;;;;;;;23.92;8.95;;;;;;;2.70;80.33;101843.25;1833318;76;21092;-63
2022/10/15 04:04:30;;;;;;;23.05;11.08;;;;;;;2.75;80.12;101845.02;1814253;78;21036;-60
2022/10/15 04:06:58;;;;;;;23.25;9.85;;;;;;;2.79;79.99;101845.53;1812430;79;21060;-62
2022/10/15 04:09:27;;;;;;;188.05;58.48;;;;;;;2.84;79.73;101849.02;1814531;78;21176;-64
2022/10/15 04:11:58;;;;;;;62.80;24.27;;;;;;;2.90;79.59;101849.98;1814304;77;21086;-63
2022/10/15 04:14:27;;;;;;;60.43;22.07;;;;;;;2.98;79.46;101846.58;1811347;77;21084;-61
2022/10/15 04:16:57;;;;;;;63.73;23.85;;;;;;;3.05;79.38;101847.95;1803592;79;21137;-61
2022/10/15 04:19:28;;;;;;;79.05;30.80;;;;;;;3.12;79.30;101848.89;1805786;78;21067;-63
2022/10/15 04:22:01;;;;;;;132.18;46.37;;;;;;;3.20;79.18;101855.47;1824038;76;21154;-57
2022/10/15 04:24:38;;;;;;;164.75;55.40;;;;;;;3.27;79.07;101854.67;1831999;78;21087;-49
2022/10/15 04:27:08;;;;;;;152.25;48.70;;;;;;;3.36;78.93;101854.75;1841794;77;21110;-45
2022/10/15 04:29:37;;;;;;;237.63;70.75;;;;;;;3.46;78.83;101855.69;1846265;78;21117;-47
2022/10/15 04:32:15;;;;;;;400.18;122.50;;;;;;;3.57;78.72;101854.48;1846350;78;21126;-44
2022/10/15 04:34:46;;;;;;;329.70;96.95;;;;;;;3.65;78.61;101849.78;1846845;78;21176;-44
2022/10/15 04:37:15;;;;;;;123.15;39.38;;;;;;;3.74;78.46;101851.56;1846593;78;21094;-45
2022/10/15 04:39:44;;;;;;;163.03;44.15;;;;;;;3.81;78.42;101862.46;1844897;78;21055;-47
2022/10/15 04:42:14;;;;;;;128.12;36.42;;;;;;;3.86;78.37;101862.07;1838360;78;21097;-48
2022/10/15 04:44:44;;;;;;;96.70;28.62;;;;;;;3.92;78.37;101866.89;1838431;78;21074;-46
2022/10/15 04:47:13;;;;;;;85.77;22.80;;;;;;;4.02;78.31;101863.46;1838548;78;21128;-46
2022/10/15 04:49:46;;;;;;;107.70;28.85;;;;;;;4.14;78.16;101863.55;1838058;78;21050;-45
2022/10/15 04:52:29;;;;;;;131.72;34.88;;;;;;;4.27;77.98;101861.02;1838967;78;21115;-45
2022/10/15 04:55:01;;;;;;;193.28;47.93;;;;;;;4.38;77.77;101865.41;1839871;78;21604;-46
2022/10/15 04:57:30;;;;;;;187.55;47.17;;;;;;;4.51;77.62;101858.94;1840071;78;21064;-45
2022/10/15 04:59:59;;;;;;;118.97;33.28;;;;;;;4.62;77.51;101863.32;1840028;78;21067;-44
2022/10/15 05:02:31;;;;;;;85.12;23.35;;;;;;;4.74;77.33;101866.42;1815744;78;21529;-48
2022/10/15 05:05:01;;;;;;;91.30;24.85;;;;;;;4.87;77.25;101866.03;1827394;78;21075;-45
2022/10/15 05:07:31;;;;;;;89.13;25.92;;;;;;;4.99;77.05;101863.42;1830289;78;21122;-45
2022/10/15 05:10:00;;;;;;;71.53;22.22;;;;;;;5.13;76.84;101867.83;1830545;78;21079;-46
2022/10/15 05:12:29;;;;;;;130.70;33.70;;;;;;;5.25;76.66;101863.91;1813774;78;21047;-45
2022/10/15 05:14:58;;;;;;;97.25;26.07;;;;;;;5.39;76.61;101873.94;1840134;78;21117;-46
2022/10/15 05:17:29;;;;;;;65.62;19.27;;;;;;;5.56;76.69;101866.54;1839991;78;21153;-44
2022/10/15 05:19:58;;;;;;;58.30;17.92;;;;;;;5.76;76.83;101873.92;1840075;77;21056;-44
2022/10/15 05:22:28;;;;;;;20.57;7.65;;;;;;;6.00;76.84;101872.19;1837440;78;21086;-44
2022/10/15 05:24:58;;;;;;;22.80;8.30;;;;;;;6.28;76.77;101868.20;1831274;78;21094;-46
2022/10/15 05:27:35;;;;;;;16.77;7.47;;;;;;;6.57;76.76;101872.88;1829482;78;21078;-46
2022/10/15 05:30:05;;;;;;;15.78;6.40;;;;;;;6.89;76.70;101875.77;1828756;77;21055;-44
2022/10/15 05:32:38;;;;;;;23.45;9.48;;;;;;;7.22;76.24;101868.58;1832299;78;21050;-45
2022/10/15 05:35:09;;;;;;;33.92;12.88;;;;;;;7.67;75.62;101867.80;1832837;78;21139;-42
2022/10/15 05:37:40;;;;;;;31.57;14.30;;;;;;;8.09;75.13;101867.37;1828443;78;21035;-44
2022/10/15 05:40:09;;;;;;;49.88;18.52;;;;;;;8.67;74.82;101868.50;1827994;78;21104;-44
2022/10/15 05:42:38;;;;;;;38.00;15.85;;;;;;;9.23;74.57;101872.06;1820777;79;21048;-44
2022/10/15 05:45:08;;;;;;;40.38;16.45;;;;;;;9.19;73.44;101876.09;1821307;78;21199;-46
2022/10/15 05:47:37;;;;;;;44.83;16.82;;;;;;;9.10;73.46;101871.83;1821437;77;21024;-45
2022/10/15 05:50:17;;;;;;;36.83;13.83;;;;;;;9.00;72.63;101872.84;1821164;78;21230;-46
2022/10/15 05:52:47;;;;;;;30.45;12.45;;;;;;;9.03;72.14;101871.49;1821574;78;21154;-44
2022/10/15 05:55:17;;;;;;;33.58;12.13;;;;;;;9.33;71.76;101873.23;1819490;78;21190;-46
2022/10/15 05:57:46;;;;;;;37.67;11.55;;;;;;;9.34;71.55;101867.09;1821347;78;21123;-44
2022/10/15 06:00:15;;;;;;;43.90;7.67;;;;;;;9.23;70.55;101869.43;1821383;79;21040;-46
2022/10/15 06:02:47;;;;;;;16.85;5.62;;;;;;;9.06;70.29;101864.44;1821579;76;21193;-45
2022/10/15 06:05:15;;;;;;;35.73;9.08;;;;;;;8.94;70.32;101863.29;1823768;77;21050;-43
2022/10/15 06:07:44;;;;;;;19.35;7.78;;;;;;;8.83;70.14;101864.75;1825070;78;21081;-43
2022/10/15 06:10:13;;;;;;;13.53;4.03;;;;;;;8.77;70.16;101862.67;1823596;77;21102;-48
2022/10/15 06:12:43;;;;;;;13.95;4.72;;;;;;;8.80;70.20;101871.38;1824449;77;21064;-44
2022/10/15 06:15:12;;;;;;;11.93;5.75;;;;;;;8.83;69.91;101867.37;1820648;79;21055;-45
2022/10/15 06:17:40;;;;;;;12.30;4.10;;;;;;;8.89;69.93;101874.33;1821292;79;21205;-47
2022/10/15 06:20:10;;;;;;;10.90;5.42;;;;;;;8.94;69.92;101872.48;1821362;79;21084;-45
2022/10/15 06:22:39;;;;;;;11.45;4.90;;;;;;;9.00;69.78;101870.21;1821698;77;21137;-47
2022/10/15 06:25:09;;;;;;;8.55;4.45;;;;;;;9.05;69.76;101869.25;1801640;80;21045;-45
2022/10/15 06:27:37;;;;;;;9.73;5.55;;;;;;;9.05;69.74;101867.08;1803813;79;21207;-45
2022/10/15 06:30:07;;;;;;;7.92;4.12;;;;;;;8.99;69.70;101868.49;1826299;78;21129;-46
2022/10/15 06:32:36;;;;;;;11.73;4.87;;;;;;;8.95;69.69;101863.72;1840135;78;21023;-46
2022/10/15 06:35:06;;;;;;;12.33;5.03;;;;;;;8.96;69.69;101868.07;1839931;78;21145;-45
2022/10/15 06:37:35;;;;;;;7.95;4.10;;;;;;;9.01;69.63;101857.52;1836891;78;21102;-44
2022/10/15 06:40:05;;;;;;;12.90;4.65;;;;;;;9.04;69.51;101857.48;1834556;77;21044;-45
2022/10/15 06:42:34;;;;;;;11.83;4.87;;;;;;;9.08;69.41;101857.84;1839998;77;21098;-45
2022/10/15 06:45:04;;;;;;;11.53;4.90;;;;;;;9.18;69.33;101856.80;1838511;78;21093;-45
2022/10/15 06:47:33;;;;;;;22.48;8.08;;;;;;;9.36;69.31;101853.48;1838456;78;21112;-48
2022/10/15 06:50:01;;;;;;;12.47;5.10;;;;;;;9.52;69.19;101848.39;1838383;78;21642;-46
2022/10/15 06:52:30;;;;;;;8.30;4.45;;;;;;;9.69;69.10;101848.55;1817702;77;21139;-47
2022/10/15 06:54:59;;;;;;;12.53;6.10;;;;;;;9.80;68.73;101850.53;1815866;79;21125;-43
2022/10/15 06:57:28;;;;;;;9.88;4.85;;;;;;;9.82;68.45;101847.43;1816005;79;21125;-45
2022/10/15 06:59:57;;;;;;;9.70;3.77;;;;;;;9.94;68.41;101844.58;1815902;79;21082;-45
2022/10/15 07:02:26;;;;;;;14.03;5.40;;;;;;;10.05;68.06;101849.61;1835740;77;21243;-48
2022/10/15 07:04:56;;;;;;;9.43;5.35;;;;;;;10.09;67.94;101850.00;1840015;78;21615;-46
2022/10/15 07:07:25;;;;;;;8.23;4.40;;;;;;;10.31;67.56;101854.85;1839969;78;21557;-47
2022/10/15 07:09:54;;;;;;;15.30;5.90;;;;;;;11.51;66.09;101838.95;1839961;78;21071;-46
2022/10/15 07:12:24;;;;;;;19.70;5.17;;;;;;;13.03;64.19;101833.34;1835691;78;21046;-46
2022/10/15 07:14:52;;;;;;;11.73;4.75;;;;;;;14.24;62.07;101834.97;1832825;78;21038;-44
2022/10/15 07:17:21;;;;;;;10.43;4.62;;;;;;;15.03;60.09;101830.20;1832972;78;21093;-47
2022/10/15 07:19:50;;;;;;;7.92;4.83;;;;;;;15.86;59.30;101828.98;1835267;77;21033;-45
2022/10/15 07:22:18;;;;;;;10.78;4.97;;;;;;;16.48;57.19;101825.28;1838995;78;21063;-47
2022/10/15 07:24:47;;;;;;;10.00;4.45;;;;;;;16.78;55.13;101826.97;1840024;78;21165;-48
2022/10/15 07:27:16;;;;;;;11.15;4.47;;;;;;;17.10;54.35;101825.05;1839971;77;21165;-46
2022/10/15 07:29:44;;;;;;;11.60;5.00;;;;;;;17.43;53.37;101821.61;1840217;78;21107;-46
2022/10/15 07:32:13;;;;;;;10.35;5.42;;;;;;;17.85;53.22;101825.70;1846794;78;21111;-46
2022/10/15 07:34:42;;;;;;;10.78;4.67;;;;;;;18.41;52.44;101824.48;1846848;78;21086;-44
2022/10/15 07:37:10;;;;;;;11.45;4.50;;;;;;;18.81;51.42;101827.64;1843080;78;21036;-45
2022/10/15 07:39:39;;;;;;;9.60;4.45;;;;;;;19.08;50.37;101827.00;1833136;78;21063;-46
2022/10/15 07:42:08;;;;;;;14.90;4.78;;;;;;;19.26;49.25;101829.94;1818990;77;21149;-45
2022/10/15 07:44:37;;;;;;;11.93;4.95;;;;;;;19.64;49.38;101820.14;1816146;79;21054;-44
2022/10/15 07:47:07;;;;;;;7.87;4.30;;;;;;;19.94;47.96;101817.91;1816042;79;21145;-44
2022/10/15 07:49:36;;;;;;;9.58;5.20;;;;;;;20.17;47.46;101811.61;1815948;79;21221;-46
2022/10/15 07:52:07;;;;;;;13.25;5.70;;;;;;;20.35;46.56;101810.45;1848189;77;21015;-44
2022/10/15 07:54:35;;;;;;;10.10;5.55;;;;;;;20.28;44.31;101807.78;1866862;77;21188;-48
2022/10/15 07:57:09;;;;;;;8.53;4.53;;;;;;;20.20;44.05;101805.59;1866858;77;21458;-47
2022/10/15 07:59:35;;;;;;;12.55;4.90;;;;;;;20.41;44.34;101807.38;1849110;77;21043;-46
2022/10/15 08:02:04;;;;;;;9.28;4.97;;;;;;;20.83;44.42;101808.76;1816500;79;21545;-45
2022/10/15 08:04:33;;;;;;;15.90;5.45;;;;;;;21.19;43.83;101804.13;1816239;79;21116;-50
2022/10/15 08:07:02;;;;;;;12.45;5.20;;;;;;;21.26;42.72;101798.34;1816382;78;21211;-49
2022/10/15 08:09:31;;;;;;;9.15;4.37;;;;;;;21.15;41.35;101791.88;1833757;78;21075;-50
2022/10/15 08:12:00;;;;;;;14.75;5.72;;;;;;;21.04;41.07;101797.59;1846658;78;21122;-48
2022/10/15 08:14:29;;;;;;;13.90;5.62;;;;;;;20.89;40.77;101792.77;1846819;78;21149;-48
2022/10/15 08:16:58;;;;;;;12.90;5.42;;;;;;;21.03;41.35;101790.53;1846825;78;21079;-45
2022/10/15 08:19:26;;;;;;;11.08;5.80;;;;;;;21.13;41.04;101787.11;1843876;78;21626;-45
2022/10/15 08:21:56;;;;;;;15.60;6.50;;;;;;;21.72;41.28;101787.19;1840065;78;21099;-45
2022/10/15 08:24:25;;;;;;;10.08;4.78;;;;;;;21.96;40.25;101788.63;1840038;78;21055;-46
2022/10/15 08:26:54;;;;;;;9.80;4.95;;;;;;;21.95;39.76;101782.42;1840035;78;21024;-48
2022/10/15 08:29:22;;;;;;;7.50;4.15;;;;;;;22.02;39.17;101785.99;1831314;78;21083;-46
2022/10/15 08:31:51;;;;;;;6.65;3.35;;;;;;;21.92;39.16;101786.64;1803086;79;21443;-46
2022/10/15 08:34:21;;;;;;;9.48;4.83;;;;;;;21.95;39.05;101787.78;1802663;79;21086;-46
2022/10/15 08:36:50;;;;;;;7.55;3.77;;;;;;;22.04;39.16;101784.94;1804076;79;21133;-47
2022/10/15 08:39:19;;;;;;;7.87;4.67;;;;;;;22.13;38.87;101783.41;1807760;79;21117;-47
2022/10/15 08:41:53;;;;;;;8.05;3.83;;;;;;;22.25;38.62;101777.16;1807726;78;21051;-49
2022/10/15 08:44:33;;;;;;;7.42;4.67;;;;;;;22.53;38.32;101774.69;1807413;79;21162;-50
2022/10/15 08:47:05;;;;;;;7.83;4.58;;;;;;;22.54;38.06;101776.42;1807555;79;21537;-45
2022/10/15 08:49:49;;;;;;;13.13;4.50;;;;;;;22.45;37.34;101769.54;1805471;79;21209;-47
2022/10/15 08:52:37;;;;;;;9.28;4.62;;;;;;;22.62;37.29;101761.09;1802292;78;21070;-48
2022/10/15 08:55:06;;;;;;;8.75;3.92;;;;;;;22.62;37.31;101762.44;1803273;79;21170;-48
2022/10/15 08:57:59;;;;;;;12.85;4.78;;;;;;;23.03;37.21;101765.19;1803239;79;21165;-46
2022/10/15 09:00:36;;;;;;;9.23;4.80;;;;;;;22.78;36.11;101754.56;1778456;81;21098;-45
2022/10/15 09:03:31;;;;;;;9.43;4.03;;;;;;;22.86;36.15;101754.88;1778341;81;21094;-48
2022/10/15 09:06:21;;;;;;;7.92;4.17;;;;;;;22.72;35.78;101747.83;1778651;81;21066;-46
2022/10/15 09:09:09;;;;;;;8.45;3.33;;;;;;;22.49;35.02;101742.84;1786657;78;21152;-46
2022/10/15 09:12:01;;;;;;;13.05;4.08;;;;;;;22.27;35.45;101745.75;1807570;79;21170;-48
2022/10/15 09:14:32;;;;;;;5.30;3.27;;;;;;;22.35;35.47;101738.02;1807781;79;21086;-48
2022/10/15 09:17:04;;;;;;;11.20;4.47;;;;;;;22.73;35.70;101730.77;1807728;79;21514;-45
2022/10/15 09:19:35;;;;;;;5.97;2.98;;;;;;;22.66;35.29;101731.70;1797391;77;21028;-47
2022/10/15 09:22:05;;;;;;;4.78;3.52;;;;;;;22.58;34.99;101738.14;1774675;80;21241;-44
2022/10/15 09:24:34;;;;;;;9.18;4.78;;;;;;;22.25;34.45;101726.20;1774877;80;21067;-46
2022/10/15 09:27:18;;;;;;;18.73;8.40;;;;;;;22.01;34.86;101727.98;1775024;80;21189;-44
2022/10/15 09:29:59;;;;;;;14.70;7.85;;;;;;;21.77;35.28;101722.06;1804281;77;21154;-45
2022/10/15 09:32:39;;;;;;;10.20;5.22;;;;;;;21.85;35.15;101726.38;1839230;78;21652;-45
2022/10/15 09:35:17;;;;;;;10.95;4.28;;;;;;;21.72;35.31;101713.48;1837300;78;21071;-47
2022/10/15 09:37:57;;;;;;;11.80;5.37;;;;;;;21.70;35.44;101724.80;1809059;78;21572;-46
2022/10/15 09:41:02;;;;;;;22.35;10.50;;;;;;;21.73;35.60;101721.91;1837404;78;21012;-45
2022/10/15 09:43:36;;;;;;;12.03;5.17;;;;;;;21.80;35.55;101716.48;1833368;78;21571;-48
2022/10/15 09:46:05;;;;;;;20.92;7.53;;;;;;;21.92;35.46;101722.78;1831245;78;21118;-45
2022/10/15 09:48:55;;;;;;;23.70;10.32;;;;;;;21.80;35.55;101712.47;1834086;78;21247;-46
2022/10/15 09:51:41;;;;;;;25.23;10.55;;;;;;;21.85;35.53;101709.44;1782706;79;21571;-45
2022/10/15 09:54:19;;;;;;;17.98;9.48;;;;;;;21.79;35.39;101704.88;1772962;80;21482;-43
2022/10/15 09:56:52;;;;;;;7.12;3.02;;;;;;;21.44;35.64;101710.02;1807224;78;21260;-43
2022/10/15 09:59:22;;;;;;;25.55;10.93;;;;;;;21.47;36.21;101707.17;1836666;78;21144;-45
2022/10/15 10:02:06;;;;;;;15.13;6.83;;;;;;;21.46;35.89;101704.11;1839445;78;21673;-44
2022/10/15 10:04:37;;;;;;;22.80;10.10;;;;;;;21.51;36.05;101709.16;1838596;78;21595;-42
2022/10/15 10:07:11;;;;;;;17.55;7.25;;;;;;;21.45;35.98;101706.42;1839527;78;21043;-47
2022/10/15 10:09:55;;;;;;;16.40;7.90;;;;;;;21.48;36.03;101698.64;1837270;78;21630;-43
2022/10/15 10:12:30;;;;;;;9.80;4.62;;;;;;;21.44;35.55;101699.80;1837961;78;21482;-44
2022/10/15 10:15:01;;;;;;;8.20;5.00;;;;;;;21.15;36.03;101686.59;1839168;78;21539;-45
2022/10/15 10:17:31;;;;;;;14.45;7.30;;;;;;;21.23;36.23;101694.09;1836493;78;21109;-45
2022/10/15 10:20:05;;;;;;;16.32;9.35;;;;;;;21.23;36.08;101688.73;1835640;78;21557;-44
2022/10/15 10:22:42;;;;;;;16.48;7.37;;;;;;;21.25;36.04;101691.70;1830841;78;21564;-45
2022/10/15 10:25:32;;;;;;;16.80;6.65;;;;;;;21.28;36.30;101689.28;1839408;78;21098;-46
2022/10/15 10:28:12;;;;;;;14.05;5.67;;;;;;;21.38;36.44;101682.34;1834520;78;21059;-44
2022/10/15 10:31:01;;;;;;;9.45;4.83;;;;;;;21.65;36.30;101687.58;1837520;77;21547;-46
2022/10/15 10:33:43;;;;;;;8.80;3.72;;;;;;;21.49;35.79;101685.14;1832800;78;21077;-45
2022/10/15 10:36:33;;;;;;;9.25;4.47;;;;;;;21.38;36.05;101672.95;1833183;78;21589;-44
2022/10/15 10:39:15;;;;;;;7.65;4.28;;;;;;;21.24;36.16;101679.75;1815572;79;21082;-44
2022/10/15 10:41:53;;;;;;;12.53;4.15;;;;;;;21.26;36.49;101680.01;1839380;77;21035;-45
2022/10/15 10:44:31;;;;;;;13.18;4.25;;;;;;;21.52;36.67;101676.02;1837830;77;21118;-45
2022/10/15 10:47:11;;;;;;;8.23;4.08;;;;;;;21.56;36.42;101670.81;1839977;78;21438;-44
2022/10/15 10:49:46;;;;;;;8.28;3.40;;;;;;;21.61;36.15;101669.16;1839673;78;21043;-44
2022/10/15 10:52:32;;;;;;;11.83;5.10;;;;;;;21.38;36.14;101658.22;1839265;77;21051;-45
2022/10/15 10:55:24;;;;;;;15.23;6.17;;;;;;;21.20;36.31;101660.36;1838812;78;21039;-42
2022/10/15 10:57:58;;;;;;;18.70;7.55;;;;;;;21.23;36.77;101660.61;1839689;77;21105;-42
2022/10/15 11:00:42;;;;;;;12.15;6.12;;;;;;;21.20;36.86;101660.36;1839481;77;21054;-43
2022/10/15 11:03:35;;;;;;;14.07;7.03;;;;;;;21.32;36.89;101660.85;1815885;79;21082;-46
2022/10/15 11:06:26;;;;;;;16.00;7.45;;;;;;;21.14;36.81;101656.28;1815499;79;21521;-46
2022/10/15 11:09:28;;;;;;;19.02;6.80;;;;;;;21.11;36.99;101651.63;1814620;79;21082;-41
2022/10/15 11:12:14;;;;;;;14.43;4.47;;;;;;;21.08;37.34;101655.38;1826216;78;21145;-44
2022/10/15 11:14:51;;;;;;;10.05;5.10;;;;;;;21.00;37.29;101655.03;1839736;78;21075;-48
2022/10/15 11:17:43;;;;;;;27.50;10.58;;;;;;;20.89;37.49;101648.22;1839931;77;21181;-47
2022/10/15 11:20:34;;;;;;;30.57;10.53;;;;;;;20.71;37.37;101653.87;1857231;77;21085;-48
2022/10/15 11:23:22;;;;;;;35.35;15.68;;;;;;;20.42;37.94;101649.95;1829436;78;21034;-44
2022/10/15 11:25:58;;;;;;;44.18;17.52;;;;;;;20.38;38.29;101644.43;1847504;77;21507;-44
2022/10/15 11:28:47;;;;;;;27.42;10.38;;;;;;;20.16;38.38;101641.42;1847893;78;21025;-45
2022/10/15 11:31:19;;;;;;;24.70;10.82;;;;;;;19.91;38.83;101642.17;1829128;76;21150;-46
2022/10/15 11:34:08;;;;;;;22.40;9.20;;;;;;;19.79;39.38;101649.14;1816796;79;21153;-45
2022/10/15 11:36:56;;;;;;;14.18;6.50;;;;;;;19.68;39.81;101647.14;1817334;78;21075;-44
2022/10/15 11:39:54;;;;;;;20.32;8.85;;;;;;;19.43;40.17;101647.32;1846936;78;21118;-45
2022/10/15 11:42:32;;;;;;;21.52;7.25;;;;;;;19.04;40.85;101651.97;1816955;78;21062;-46
2022/10/15 11:45:20;;;;;;;13.28;5.65;;;;;;;18.65;41.41;101653.36;1816405;79;21055;-47
2022/10/15 11:48:03;;;;;;;15.30;6.90;;;;;;;18.38;41.89;101658.48;1816850;79;21074;-49
2022/10/15 11:50:53;;;;;;;15.08;7.55;;;;;;;18.18;42.37;101659.12;1821124;78;21155;-45